Time;durP1;ratioP1;P1;durP2;ratioP2;P2;SDS_P1;SDS_P2;PMS_P1;PMS_P2;Temp;Humidity;BMP_temperature;BMP_pressure;BME280_temperature;BME280_humidity;BME280_pressure;Samples;Min_cycle;Max_cycle;Signal;HPM_P1;HPM_P2
2022/05/28 03:57:42;;;;;;;4.73;1.97;;;8.20;99.90;;;;;;6241097;22;20205;31
2022/05/28 04:00:09;;;;;;;7.70;1.80;;;8.20;99.90;;;;;;5010991;28;20196;-74
2022/05/28 04:02:34;;;;;;;5.30;1.60;;;8.10;99.90;;;;;;5012310;28;20226;-74
2022/05/28 04:05:00;;;;;;;5.13;1.90;;;8.00;99.90;;;;;;4996213;28;20167;-74
2022/05/28 04:07:25;;;;;;;6.40;1.60;;;8.00;99.90;;;;;;5028941;28;20221;-74
2022/05/28 04:09:51;;;;;;;3.27;1.40;;;8.00;99.90;;;;;;4996061;28;20249;-74
2022/05/28 04:12:17;;;;;;;6.20;2.17;;;8.10;99.90;;;;;;4995726;28;20176;-74
2022/05/28 04:14:43;;;;;;;4.27;1.70;;;8.00;99.90;;;;;;5051308;23;20226;-74
2022/05/28 04:17:09;;;;;;;4.73;1.60;;;8.20;99.90;;;;;;5048962;28;20210;-74
2022/05/28 04:19:35;;;;;;;4.43;1.70;;;8.20;99.90;;;;;;5015392;28;20233;-74
2022/05/28 04:22:00;;;;;;;6.47;2.10;;;8.20;99.90;;;;;;5015347;28;20183;-74
2022/05/28 04:24:26;;;;;;;4.93;2.00;;;8.20;99.90;;;;;;5015499;28;20647;-74
2022/05/28 04:26:51;;;;;;;3.93;1.70;;;8.30;99.90;;;;;;5031872;28;20183;-74
2022/05/28 04:29:17;;;;;;;3.37;1.80;;;8.30;99.90;;;;;;5031890;28;20580;-74
2022/05/28 04:31:42;;;;;;;4.67;1.80;;;8.40;99.90;;;;;;5031670;28;20262;-74
2022/05/28 04:34:08;;;;;;;8.40;1.90;;;8.40;99.90;;;;;;5031575;28;20200;-74
2022/05/28 04:36:34;;;;;;;5.53;1.97;;;8.40;99.90;;;;;;5031347;28;20180;-74
2022/05/28 04:38:59;;;;;;;4.57;1.70;;;8.50;99.90;;;;;;5031725;28;20210;-74
2022/05/28 04:41:25;;;;;;;5.40;1.80;;;8.50;99.90;;;;;;5031534;28;20175;-74
2022/05/28 04:43:51;;;;;;;5.73;1.83;;;8.50;99.90;;;;;;5031635;28;20198;-74
2022/05/28 04:46:16;;;;;;;8.77;1.97;;;8.50;99.90;;;;;;5048081;28;20178;-74
2022/05/28 04:48:42;;;;;;;4.70;1.77;;;8.50;99.90;;;;;;5031473;28;20333;-73
2022/05/28 04:51:07;;;;;;;6.23;1.73;;;8.50;99.90;;;;;;5031499;28;20265;-74
2022/05/28 04:53:33;;;;;;;4.70;1.83;;;8.50;99.90;;;;;;5031463;28;20253;-74
2022/05/28 04:55:59;;;;;;;6.40;2.00;;;8.60;99.90;;;;;;5031321;28;20192;-74
2022/05/28 04:58:27;;;;;;;9.53;1.90;;;8.70;99.90;;;;;;5031421;28;20187;-74
2022/05/28 05:00:53;;;;;;;7.33;1.93;;;8.80;99.90;;;;;;5031525;28;20206;-74
2022/05/28 05:03:19;;;;;;;3.43;1.53;;;8.70;99.90;;;;;;5031271;28;20205;-74
2022/05/28 05:05:45;;;;;;;5.83;1.67;;;8.90;99.90;;;;;;5031362;28;20625;-74
2022/05/28 05:08:11;;;;;;;4.93;1.70;;;8.90;99.90;;;;;;5031021;28;20202;-75
2022/05/28 05:10:37;;;;;;;4.90;1.93;;;9.00;99.90;;;;;;5031199;28;20182;-75
2022/05/28 05:13:04;;;;;;;5.97;1.77;;;9.00;99.90;;;;;;5030700;28;20202;-74
2022/05/28 05:15:30;;;;;;;5.30;1.73;;;9.00;99.90;;;;;;5031003;28;20225;-74
2022/05/28 05:17:56;;;;;;;5.50;1.90;;;9.10;99.90;;;;;;5030826;28;20182;-75
2022/05/28 05:20:21;;;;;;;7.27;1.93;;;9.20;99.90;;;;;;5030993;28;20214;-75
2022/05/28 05:22:47;;;;;;;6.87;2.33;;;9.30;99.90;;;;;;5030790;28;20214;-75
2022/05/28 05:25:13;;;;;;;3.80;2.10;;;9.30;99.90;;;;;;5030845;28;20177;-74
2022/05/28 05:27:39;;;;;;;3.43;1.63;;;9.30;99.90;;;;;;5030827;28;20616;-75
2022/05/28 05:30:06;;;;;;;7.20;2.33;;;9.40;99.90;;;;;;5030864;28;20172;-75
2022/05/28 05:32:32;;;;;;;6.03;2.00;;;9.40;99.90;;;;;;5030587;28;20176;-75
2022/05/28 05:34:58;;;;;;;4.03;1.57;;;9.40;99.90;;;;;;5030885;28;20204;-75
2022/05/28 05:37:24;;;;;;;4.20;1.90;;;9.40;99.90;;;;;;5030938;28;20183;-75
2022/05/28 05:39:49;;;;;;;6.07;2.03;;;9.50;99.90;;;;;;5030782;28;20174;-74
2022/05/28 05:42:15;;;;;;;8.27;1.80;;;9.60;99.90;;;;;;5031806;28;20175;-75
2022/05/28 05:44:41;;;;;;;5.47;1.73;;;9.70;99.90;;;;;;5031021;28;20202;-75
2022/05/28 05:47:07;;;;;;;4.47;1.80;;;9.70;99.90;;;;;;5030794;28;20637;-74
2022/05/28 05:49:33;;;;;;;4.53;1.70;;;9.70;99.90;;;;;;5032556;28;20178;-74
2022/05/28 05:51:59;;;;;;;5.87;1.70;;;9.90;99.90;;;;;;5034536;28;20176;-75
2022/05/28 05:54:25;;;;;;;6.47;1.90;;;9.80;99.90;;;;;;5034516;28;20204;-74
2022/05/28 05:56:51;;;;;;;6.87;1.90;;;9.70;99.90;;;;;;5035862;28;20231;-75
2022/05/28 05:59:17;;;;;;;5.87;2.10;;;9.90;99.90;;;;;;5034559;28;20189;-75
2022/05/28 06:01:43;;;;;;;3.47;1.63;;;9.90;99.90;;;;;;5034694;28;20225;-75
2022/05/28 06:04:08;;;;;;;5.50;2.30;;;9.90;99.90;;;;;;5050933;28;20195;-75
2022/05/28 06:06:34;;;;;;;5.93;1.87;;;9.90;99.90;;;;;;5034740;28;20238;-74
2022/05/28 06:09:00;;;;;;;5.40;1.87;;;10.00;99.90;;;;;;5034343;28;20209;-75
2022/05/28 06:11:26;;;;;;;7.27;1.90;;;10.10;99.90;;;;;;5034294;28;20178;-75
2022/05/28 06:13:52;;;;;;;6.20;1.70;;;10.20;99.90;;;;;;5033973;28;20209;-74
2022/05/28 06:16:18;;;;;;;5.67;1.93;;;10.30;99.90;;;;;;5034430;28;20216;-75
2022/05/28 06:18:44;;;;;;;4.47;2.00;;;10.40;99.90;;;;;;5033994;28;20206;-75
2022/05/28 06:21:10;;;;;;;5.43;1.80;;;10.40;99.90;;;;;;5034301;28;20186;-75
2022/05/28 06:23:35;;;;;;;5.60;1.93;;;10.50;99.90;;;;;;5033873;28;20202;-75
2022/05/28 06:26:04;;;;;;;8.27;1.87;;;10.60;99.90;;;;;;5034319;28;20545;-75
2022/05/28 06:28:31;;;;;;;4.80;1.63;;;10.70;99.90;;;;;;5034045;28;20230;-75
2022/05/28 06:31:01;;;;;;;7.13;1.93;;;10.80;99.90;;;;;;5034077;28;20268;-75
2022/05/28 06:33:27;;;;;;;4.73;1.60;;;11.00;99.90;;;;;;5033805;28;20264;-74
2022/05/28 06:35:57;;;;;;;6.67;1.73;;;11.10;99.90;;;;;;5033846;28;20648;-74
2022/05/28 06:38:23;;;;;;;3.23;1.53;;;11.10;99.90;;;;;;5050340;28;20741;-75
2022/05/28 06:40:48;;;;;;;7.67;1.77;;;11.20;99.90;;;;;;5033757;28;20719;-75
2022/05/28 06:43:14;;;;;;;6.03;1.63;;;11.20;99.90;;;;;;5033498;28;20217;-75
2022/05/28 06:45:39;;;;;;;3.63;1.70;;;11.30;99.90;;;;;;5033703;28;20178;-75
2022/05/28 06:48:05;;;;;;;4.40;1.50;;;11.30;99.90;;;;;;5033575;28;20199;-75
2022/05/28 06:53:15;;;;;;;4.03;1.83;;;11.30;99.90;;;;;;5047946;28;20209;-74
2022/05/28 06:55:41;;;;;;;4.57;1.53;;;11.40;99.90;;;;;;5033552;28;20182;-75
2022/05/28 06:58:07;;;;;;;4.13;1.40;;;11.30;99.90;;;;;;5033568;28;20174;-74
2022/05/28 07:00:34;;;;;;;4.90;1.70;;;11.30;99.90;;;;;;5032880;28;20170;-75
2022/05/28 07:03:00;;;;;;;3.33;1.63;;;11.20;99.90;;;;;;5033109;28;20198;-75
2022/05/28 07:05:28;;;;;;;3.10;1.77;;;11.30;99.90;;;;;;5033257;28;20228;-75
2022/05/28 07:07:54;;;;;;;6.90;1.83;;;11.40;99.90;;;;;;5033204;28;20236;-74
2022/05/28 07:10:20;;;;;;;3.80;1.50;;;11.50;99.90;;;;;;5050054;28;20171;-75
2022/05/28 07:12:45;;;;;;;3.40;1.70;;;11.50;99.90;;;;;;5032742;28;20224;-75
2022/05/28 07:15:13;;;;;;;4.27;1.70;;;11.50;99.90;;;;;;5033162;28;20548;-75
2022/05/28 07:17:41;;;;;;;2.63;1.60;;;11.40;99.90;;;;;;5049249;28;20174;-75
2022/05/28 07:20:09;;;;;;;4.53;1.80;;;11.40;99.90;;;;;;5033081;28;20186;-75
2022/05/28 07:22:35;;;;;;;4.90;1.70;;;11.50;99.90;;;;;;5032743;28;20179;-74
2022/05/28 07:25:01;;;;;;;3.73;1.63;;;11.40;99.90;;;;;;5033210;28;20245;-75
2022/05/28 07:27:27;;;;;;;4.83;1.57;;;11.50;99.90;;;;;;5032874;28;20668;-75
2022/05/28 07:29:56;;;;;;;3.53;1.80;;;11.70;99.90;;;;;;5033127;28;20228;-75
2022/05/28 07:32:25;;;;;;;5.00;1.90;;;12.00;99.90;;;;;;5032843;28;20184;-75
2022/05/28 07:34:51;;;;;;;6.07;1.93;;;12.30;99.90;;;;;;5032722;28;20229;-75
2022/05/28 07:37:17;;;;;;;4.83;1.73;;;12.50;99.90;;;;;;5032647;28;20181;-75
2022/05/28 07:39:42;;;;;;;3.80;1.43;;;12.80;99.90;;;;;;5032851;28;20182;-74
2022/05/28 07:42:08;;;;;;;2.40;1.70;;;12.90;99.90;;;;;;5032566;28;20178;-74
2022/05/28 07:44:34;;;;;;;4.17;1.63;;;13.10;99.90;;;;;;5049200;28;20723;-75
2022/05/28 07:47:04;;;;;;;2.67;1.40;;;13.20;99.90;;;;;;5049141;28;20175;-75
2022/05/28 07:49:29;;;;;;;3.23;1.53;;;13.20;99.90;;;;;;5032453;28;20175;-75
2022/05/28 07:51:55;;;;;;;4.93;1.53;;;13.10;99.90;;;;;;5032274;28;20285;-75
2022/05/28 07:54:21;;;;;;;2.77;1.40;;;13.10;99.90;;;;;;5032554;28;20569;-75
2022/05/28 07:56:46;;;;;;;4.60;1.47;;;13.30;99.90;;;;;;5032474;28;20186;-74
2022/05/28 07:59:12;;;;;;;2.77;1.30;;;13.50;99.90;;;;;;5032440;28;20189;-75
2022/05/28 08:01:39;;;;;;;3.33;1.40;;;13.70;99.90;;;;;;5048926;28;20186;-74
2022/05/28 08:04:06;;;;;;;3.43;1.40;;;13.60;99.90;;;;;;5032052;28;20567;-75
2022/05/28 08:06:32;;;;;;;1.67;1.17;;;13.60;99.90;;;;;;5032383;28;20270;-75
2022/05/28 08:08:59;;;;;;;5.47;1.40;;;13.70;99.90;;;;;;5033363;28;20699;-75
2022/05/28 08:11:25;;;;;;;2.07;1.00;;;13.80;99.90;;;;;;5031496;28;20172;-74
2022/05/28 08:13:52;;;;;;;1.97;1.00;;;13.90;99.90;;;;;;5031796;28;20213;-74
2022/05/28 08:16:18;;;;;;;1.27;1.00;;;14.10;99.90;;;;;;5032139;28;20174;-75
2022/05/28 08:18:43;;;;;;;3.13;1.10;;;14.10;99.90;;;;;;5031705;28;20190;-74
2022/05/28 08:23:53;;;;;;;1.87;1.10;;;14.50;99.90;;;;;;5046358;28;20573;-75
2022/05/28 08:26:19;;;;;;;3.60;1.40;;;14.50;99.90;;;;;;5031891;28;20268;-75
2022/05/28 08:28:46;;;;;;;2.23;1.00;;;14.50;99.90;;;;;;5031569;28;20293;-75
2022/05/28 08:31:12;;;;;;;2.00;1.20;;;14.30;99.90;;;;;;5031431;28;20178;-75
2022/05/28 08:33:38;;;;;;;2.87;1.00;;;14.20;99.90;;;;;;5031450;28;20788;-74
2022/05/28 08:36:05;;;;;;;2.87;1.00;;;14.10;99.90;;;;;;5031670;28;20261;-75
2022/05/28 08:38:30;;;;;;;2.30;1.10;;;14.20;99.90;;;;;;5048267;28;20192;-75
2022/05/28 08:41:15;;;;;;;3.07;1.10;;;14.40;99.90;;;;;;5031669;28;20174;-75
2022/05/28 08:44:13;;;;;;;2.20;0.83;;;14.70;99.90;;;;;;5031555;28;20205;-75
2022/05/28 08:46:40;;;;;;;1.33;0.90;;;14.80;99.90;;;;;;5031517;28;20616;-75
2022/05/28 08:49:09;;;;;;;3.97;1.63;;;15.00;99.90;;;;;;5031704;28;20198;-75
2022/05/28 08:51:40;;;;;;;1.33;1.00;;;15.10;99.90;;;;;;5031300;28;20177;-75
2022/05/28 08:54:24;;;;;;;2.57;1.20;;;14.90;99.90;;;;;;5031434;28;20190;-74
2022/05/28 08:56:53;;;;;;;0.70;0.70;;;14.70;99.90;;;;;;5031394;28;20265;-74
2022/05/28 08:59:25;;;;;;;2.60;1.00;;;14.60;99.90;;;;;;5031257;28;20202;-75
2022/05/28 09:01:52;;;;;;;1.77;0.90;;;14.60;99.90;;;;;;5030826;28;20248;-75
2022/05/28 09:04:40;;;;;;;2.00;1.20;;;14.70;99.90;;;;;;5032342;28;20284;-74
2022/05/28 09:07:11;;;;;;;2.70;1.10;;;14.70;99.90;;;;;;5030848;28;20218;-74
2022/05/28 09:09:48;;;;;;;2.13;0.90;;;14.60;99.60;;;;;;5031171;28;20645;-74
2022/05/28 09:12:30;;;;;;;1.00;0.80;;;14.50;98.40;;;;;;5031248;28;20511;-75
2022/05/28 09:14:56;;;;;;;1.60;0.83;;;14.30;97.50;;;;;;5031160;28;20234;-74
2022/05/28 09:17:35;;;;;;;1.20;0.80;;;14.50;98.70;;;;;;5031029;28;20225;-75
2022/05/28 09:20:06;;;;;;;1.93;0.93;;;14.90;99.90;;;;;;5030956;28;20235;-75
2022/05/28 09:22:36;;;;;;;2.03;1.00;;;15.30;98.60;;;;;;5030906;28;20185;-75
2022/05/28 09:25:03;;;;;;;2.60;0.80;;;15.60;97.90;;;;;;5030779;28;20174;-75
2022/05/28 09:27:46;;;;;;;2.60;0.80;;;15.80;97.60;;;;;;5030752;28;20240;-75
2022/05/28 09:30:41;;;;;;;1.87;0.73;;;16.20;96.40;;;;;;5031253;28;20167;-74
2022/05/28 09:33:34;;;;;;;1.27;0.93;;;16.20;94.60;;;;;;5030546;28;20194;-75
2022/05/28 09:36:13;;;;;;;1.53;1.07;;;16.20;93.50;;;;;;5032014;28;20672;-75
2022/05/28 09:39:00;;;;;;;1.60;0.83;;;16.10;95.20;;;;;;5030809;28;20185;-75
2022/05/28 09:41:37;;;;;;;0.80;0.80;;;16.00;94.70;;;;;;5030914;28;20598;-74
2022/05/28 09:44:21;;;;;;;2.73;1.03;;;15.90;92.60;;;;;;5030580;28;20295;-74
2022/05/28 09:46:47;;;;;;;2.13;0.97;;;15.70;92.20;;;;;;5030925;28;20174;-75
2022/05/28 09:49:15;;;;;;;1.80;0.80;;;15.70;93.70;;;;;;5030808;28;20205;-75
2022/05/28 09:51:55;;;;;;;1.90;0.90;;;15.50;95.40;;;;;;5030686;28;20171;-75
2022/05/28 09:54:27;;;;;;;3.53;1.20;;;15.90;95.30;;;;;;5030787;28;20194;-75
2022/05/28 09:56:54;;;;;;;2.33;1.20;;;16.30;95.80;;;;;;5031868;28;20163;-75
2022/05/28 09:59:23;;;;;;;1.80;0.90;;;16.20;92.90;;;;;;5030657;28;20664;-75
2022/05/28 10:01:59;;;;;;;1.80;1.00;;;16.20;93.70;;;;;;5030557;28;20187;-75
2022/05/28 10:04:29;;;;;;;2.00;1.13;;;16.30;93.10;;;;;;5030519;28;20201;-75
2022/05/28 10:06:56;;;;;;;2.03;0.87;;;16.50;92.80;;;;;;5046689;28;20178;-75
2022/05/28 10:09:27;;;;;;;2.00;0.83;;;16.60;92.20;;;;;;5030651;28;20572;-74
2022/05/28 10:11:56;;;;;;;1.83;0.87;;;16.30;93.60;;;;;;5047121;28;20626;-74
2022/05/28 10:14:24;;;;;;;3.10;1.30;;;15.90;93.50;;;;;;5031029;28;20214;-75
2022/05/28 10:16:58;;;;;;;1.63;1.03;;;15.90;93.40;;;;;;5030682;28;20273;-75
2022/05/28 10:19:40;;;;;;;1.37;0.87;;;15.80;94.70;;;;;;5030344;28;20272;-75
2022/05/28 10:22:14;;;;;;;1.87;1.00;;;15.70;92.70;;;;;;5031839;28;20178;-75
2022/05/28 15:24:12;;;;;;;3.33;1.10;;;20.30;58.50;;;;;;6272845;22;20195;-74
2022/05/28 15:26:40;;;;;;;1.97;1.00;;;19.40;57.90;;;;;;4972434;28;20659;-74
2022/05/28 15:29:06;;;;;;;1.63;1.07;;;18.80;58.00;;;;;;4974298;28;20259;-74
2022/05/28 15:31:33;;;;;;;1.70;0.90;;;18.40;59.00;;;;;;4974223;28;20250;-74
2022/05/28 15:33:59;;;;;;;1.27;0.80;;;18.10;59.40;;;;;;4975259;28;20600;-75
2022/05/28 15:39:09;;;;;;;2.10;1.00;;;18.10;64.00;;;;;;4974599;28;20271;-74
2022/05/28 15:41:37;;;;;;;3.50;1.10;;;18.40;62.20;;;;;;4974054;28;20255;-74
2022/05/28 15:44:07;;;;;;;2.90;0.90;;;18.60;65.70;;;;;;4957540;28;20635;-75
2022/05/28 15:46:33;;;;;;;1.50;1.00;;;19.10;61.00;;;;;;4957774;28;20423;-74
2022/05/28 15:48:58;;;;;;;2.60;1.00;;;19.50;67.60;;;;;;4973740;28;20236;-74
2022/05/28 15:51:24;;;;;;;2.63;0.90;;;19.80;64.30;;;;;;4957617;28;20176;-75
2022/05/28 15:53:52;;;;;;;2.17;0.87;;;19.70;63.90;;;;;;4957657;28;20279;-74
2022/05/28 15:56:18;;;;;;;2.70;1.00;;;19.70;64.60;;;;;;4957673;28;20226;-74
2022/05/28 15:58:44;;;;;;;2.00;0.83;;;19.90;63.80;;;;;;4957490;28;20188;-75
2022/05/28 16:01:20;;;;;;;2.23;1.03;;;19.70;64.00;;;;;;4973680;28;20181;-75
2022/05/28 16:03:46;;;;;;;1.00;0.80;;;19.30;66.40;;;;;;4973713;28;20215;-74
2022/05/28 16:06:12;;;;;;;1.67;0.80;;;19.10;68.90;;;;;;4957357;28;20208;-74
2022/05/28 16:08:40;;;;;;;2.43;1.10;;;19.00;71.20;;;;;;4957497;28;20212;-75
2022/05/28 16:11:24;;;;;;;1.60;0.80;;;18.90;68.80;;;;;;4957639;28;20204;-74
2022/05/28 16:13:51;;;;;;;1.20;1.00;;;19.10;67.60;;;;;;4973305;28;20295;-74
2022/05/28 16:16:18;;;;;;;2.17;1.20;;;19.60;68.10;;;;;;4973261;28;20180;-74
2022/05/28 16:18:45;;;;;;;2.88;1.00;;;19.90;65.00;;;;;;4973004;28;20176;-75
2022/05/28 16:21:12;;;;;;;1.45;1.10;;;20.20;63.90;;;;;;4974497;28;20173;-74
2022/05/28 16:23:38;;;;;;;2.03;0.80;;;20.20;62.70;;;;;;4957204;28;20184;-74
2022/05/28 16:26:07;;;;;;;1.80;0.80;;;20.50;60.00;;;;;;4990662;28;20710;-74
2022/05/28 16:28:35;;;;;;;3.63;1.00;;;20.60;64.20;;;;;;4976141;28;20207;-74
2022/05/28 16:31:06;;;;;;;3.40;1.25;;;20.60;60.10;;;;;;4976593;28;20389;-74
2022/05/28 16:33:32;;;;;;;1.73;0.95;;;20.40;64.70;;;;;;4991720;28;20183;-74
2022/05/28 16:35:58;;;;;;;2.88;1.10;;;20.40;61.40;;;;;;4992409;28;20246;-74
2022/05/28 16:38:23;;;;;;;1.90;1.00;;;20.40;60.70;;;;;;4976176;28;20187;-75
2022/05/28 16:40:49;;;;;;;1.48;1.00;;;20.30;60.20;;;;;;4976384;28;20230;-75
2022/05/28 16:43:15;;;;;;;1.98;1.35;;;20.10;61.70;;;;;;4976007;28;20175;-75
2022/05/28 16:45:40;;;;;;;2.03;1.50;;;19.90;62.40;;;;;;4992269;28;20250;-75
2022/05/28 16:48:06;;;;;;;2.53;1.65;;;19.90;61.40;;;;;;4975921;28;20199;-75
2022/05/28 16:50:32;;;;;;;4.00;2.25;;;19.80;59.40;;;;;;4975936;28;20184;-75
2022/05/28 16:52:57;;;;;;;1.75;1.00;;;19.70;63.30;;;;;;4991827;28;20656;-74
2022/05/28 16:55:23;;;;;;;2.88;1.10;;;19.70;64.40;;;;;;4976061;28;20200;-75
2022/05/28 16:57:49;;;;;;;2.57;1.10;;;19.50;63.60;;;;;;4992111;28;20184;-75
2022/05/28 17:00:16;;;;;;;3.03;1.23;;;19.00;62.20;;;;;;4992128;28;20547;-74
2022/05/28 17:02:41;;;;;;;1.57;1.30;;;18.60;63.40;;;;;;4992949;28;20180;-75
2022/05/28 17:05:08;;;;;;;3.17;1.70;;;18.40;64.60;;;;;;4991965;28;20576;-75
2022/05/28 17:07:34;;;;;;;2.53;1.50;;;18.10;70.00;;;;;;4975577;28;20187;-75
2022/05/28 17:09:59;;;;;;;3.10;1.10;;;18.00;68.40;;;;;;4975846;28;20222;-75
2022/05/28 17:12:28;;;;;;;2.37;1.30;;;17.80;68.30;;;;;;4975687;28;20653;-75
2022/05/28 17:14:54;;;;;;;2.57;1.57;;;17.60;69.90;;;;;;4992933;28;20195;-75
2022/05/28 17:17:21;;;;;;;4.37;2.60;;;17.50;69.80;;;;;;4975449;28;20299;-75
2022/05/28 17:19:46;;;;;;;3.10;1.70;;;17.40;72.20;;;;;;4991795;28;20171;-75
2022/05/28 17:22:12;;;;;;;1.90;1.20;;;17.30;74.30;;;;;;4975593;28;20187;-75
2022/05/28 17:24:40;;;;;;;2.43;1.30;;;17.30;74.50;;;;;;4991386;28;20773;-75
2022/05/28 17:27:06;;;;;;;2.73;1.40;;;17.50;77.20;;;;;;4992840;28;20164;-75
2022/05/28 17:29:33;;;;;;;2.70;1.40;;;17.70;73.20;;;;;;4991614;28;20215;-74
2022/05/28 17:32:06;;;;;;;2.37;1.37;;;17.60;74.80;;;;;;4991390;28;20222;-75
2022/05/28 17:34:33;;;;;;;1.43;0.97;;;17.50;74.90;;;;;;4991476;28;20754;-75
2022/05/28 17:37:00;;;;;;;3.13;1.10;;;17.40;78.00;;;;;;4991766;28;20180;-75
2022/05/28 17:39:26;;;;;;;1.57;1.17;;;17.30;78.50;;;;;;4975527;28;20634;-75
2022/05/28 17:41:52;;;;;;;2.77;1.20;;;17.20;80.90;;;;;;4991413;28;20207;-75
2022/05/28 17:44:18;;;;;;;2.83;1.27;;;17.10;84.00;;;;;;4992590;28;20684;-75
2022/05/28 17:46:44;;;;;;;1.80;1.00;;;17.10;84.70;;;;;;4996637;28;20203;-75
2022/05/28 17:49:11;;;;;;;3.77;1.30;;;17.20;86.60;;;;;;4979054;28;20231;-75
2022/05/28 17:51:38;;;;;;;2.30;1.20;;;17.20;85.70;;;;;;4996540;28;20170;-75
2022/05/28 17:54:05;;;;;;;1.80;1.03;;;17.10;86.90;;;;;;4978934;28;20181;-75
2022/05/28 17:56:30;;;;;;;2.53;1.03;;;17.00;88.30;;;;;;4979229;28;20175;-75
2022/05/28 17:58:56;;;;;;;2.30;1.10;;;16.70;88.00;;;;;;4995321;28;20550;-75
2022/05/28 18:01:31;;;;;;;3.27;1.67;;;16.60;90.10;;;;;;4995179;28;20215;-75
2022/05/28 18:03:56;;;;;;;2.50;1.20;;;16.60;90.90;;;;;;4995052;28;20174;-75
2022/05/28 18:06:23;;;;;;;2.97;1.10;;;16.50;91.70;;;;;;4995635;28;20176;-75
2022/05/28 18:08:49;;;;;;;3.13;1.27;;;16.40;92.50;;;;;;4995881;28;20199;-74
2022/05/28 18:11:15;;;;;;;2.97;1.20;;;16.30;92.50;;;;;;4995551;28;20211;-75
2022/05/28 18:13:41;;;;;;;3.60;1.80;;;16.20;92.90;;;;;;4978881;28;20202;-75
2022/05/28 18:16:10;;;;;;;3.90;1.70;;;16.00;93.90;;;;;;4994862;28;20286;-75
2022/05/28 18:18:42;;;;;;;2.13;1.50;;;15.80;94.20;;;;;;4979266;28;20195;-75
2022/05/28 18:21:11;;;;;;;2.93;1.40;;;15.60;95.70;;;;;;4995290;28;20199;-75
2022/05/28 18:23:38;;;;;;;4.00;1.60;;;15.50;97.20;;;;;;4994658;28;20182;-75
2022/05/28 18:26:09;;;;;;;2.10;1.57;;;15.40;98.50;;;;;;4978150;28;20401;-75
2022/05/28 18:28:36;;;;;;;3.50;1.30;;;15.30;99.20;;;;;;4979343;28;20204;-75
2022/05/28 18:31:01;;;;;;;2.47;1.43;;;15.30;99.90;;;;;;4979178;28;20646;-75
2022/05/28 18:33:27;;;;;;;2.43;1.47;;;15.40;99.90;;;;;;4979403;28;20175;-75
2022/05/28 18:36:30;;;;;;;2.63;1.40;;;15.50;99.90;;;;;;4979045;28;20254;-76
2022/05/28 18:38:58;;;;;;;2.70;1.60;;;15.50;99.90;;;;;;4995342;28;20180;-75
2022/05/28 18:41:24;;;;;;;3.17;1.40;;;15.40;99.90;;;;;;4979051;28;20205;-75
2022/05/28 18:43:50;;;;;;;3.20;1.50;;;15.40;99.90;;;;;;4994908;28;20186;-75
2022/05/28 18:46:16;;;;;;;4.43;1.83;;;15.30;99.90;;;;;;4994949;28;20179;-75
2022/05/28 18:48:42;;;;;;;3.40;1.60;;;15.30;99.90;;;;;;4978860;28;20542;-74
2022/05/28 18:51:10;;;;;;;5.00;1.50;;;15.20;99.90;;;;;;4978100;28;20176;-74
2022/05/28 18:56:26;;;;;;;3.33;1.30;;;15.00;99.90;;;;;;4994590;28;20653;-75
2022/05/28 18:58:51;;;;;;;3.03;1.40;;;14.90;99.90;;;;;;4994869;28;20547;-75
2022/05/28 19:01:17;;;;;;;2.40;1.30;;;14.80;99.90;;;;;;4962671;28;20270;-75
2022/05/28 19:03:42;;;;;;;2.50;1.20;;;14.70;99.90;;;;;;4978594;28;20180;-75
2022/05/28 19:06:08;;;;;;;2.30;1.13;;;14.60;99.90;;;;;;4978412;28;20222;-75
2022/05/28 19:08:38;;;;;;;2.90;1.10;;;14.50;99.90;;;;;;4994791;28;20195;-75
2022/05/28 19:11:06;;;;;;;3.43;1.33;;;14.50;99.90;;;;;;4978917;28;20558;-75
2022/05/28 19:13:32;;;;;;;1.43;1.10;;;14.30;99.90;;;;;;4978996;28;20180;-75
2022/05/28 19:15:58;;;;;;;7.80;1.40;;;14.20;99.90;;;;;;4962308;28;20199;-76
2022/05/28 19:18:24;;;;;;;3.03;1.10;;;14.00;99.90;;;;;;4962167;28;20180;-76
2022/05/28 19:20:49;;;;;;;2.63;1.20;;;13.80;99.90;;;;;;4978250;28;20194;-75
2022/05/28 19:23:16;;;;;;;2.00;1.17;;;13.60;99.90;;;;;;4962013;28;20187;-75
2022/05/28 19:28:33;;;;;;;2.73;1.40;;;13.40;99.90;;;;;;4995545;28;20194;-75
2022/05/28 19:31:00;;;;;;;2.50;1.30;;;13.30;99.90;;;;;;4994111;28;20176;-75
2022/05/28 19:33:31;;;;;;;3.00;1.47;;;13.20;99.90;;;;;;4977828;28;20207;-75
2022/05/28 19:36:00;;;;;;;3.70;1.30;;;13.20;99.90;;;;;;4963203;28;20246;-75
2022/05/28 19:38:26;;;;;;;3.10;1.43;;;13.10;99.90;;;;;;4994318;28;20180;-75
2022/05/28 19:40:55;;;;;;;3.77;1.40;;;13.00;99.90;;;;;;4978158;28;20384;-75
2022/05/28 19:43:22;;;;;;;2.70;1.40;;;12.90;99.90;;;;;;4978293;28;20180;-75
2022/05/28 19:45:52;;;;;;;1.40;1.20;;;12.90;99.90;;;;;;4994112;28;20203;-74
2022/05/28 19:48:21;;;;;;;2.80;1.53;;;12.90;99.90;;;;;;4993780;28;20196;-75
2022/05/28 19:50:47;;;;;;;3.20;1.43;;;12.80;99.90;;;;;;4978036;28;20175;-75
2022/05/28 19:53:14;;;;;;;2.83;1.47;;;12.60;99.90;;;;;;4977839;28;20182;-75
2022/05/28 19:55:40;;;;;;;2.57;1.07;;;12.50;99.90;;;;;;4977470;28;20710;-75
2022/05/28 19:58:06;;;;;;;3.77;1.40;;;12.50;99.90;;;;;;4994813;28;20175;-75
2022/05/28 20:00:34;;;;;;;2.90;1.47;;;12.40;99.90;;;;;;4993878;28;20206;-75
2022/05/28 20:02:59;;;;;;;2.53;1.30;;;12.40;99.90;;;;;;4993184;28;20206;-75
2022/05/28 20:05:26;;;;;;;4.07;1.43;;;12.30;99.90;;;;;;4977572;28;20547;-75
2022/05/28 20:07:53;;;;;;;4.33;1.33;;;12.00;99.90;;;;;;4992368;28;20321;-75
2022/05/28 20:10:21;;;;;;;2.23;1.40;;;11.90;99.90;;;;;;4977627;28;20172;-75
2022/05/28 20:12:49;;;;;;;4.07;1.57;;;11.90;99.90;;;;;;4977285;28;20172;-75
2022/05/28 20:15:15;;;;;;;2.47;1.47;;;11.60;99.90;;;;;;4993382;28;20195;-75
2022/05/28 20:17:41;;;;;;;2.57;1.30;;;11.70;99.90;;;;;;4977383;28;20182;-78
2022/05/28 20:20:08;;;;;;;3.30;1.40;;;11.50;99.90;;;;;;4977065;28;20168;-74
2022/05/28 20:22:35;;;;;;;2.83;1.20;;;11.50;99.90;;;;;;4977188;28;20198;-75
2022/05/28 20:25:00;;;;;;;2.27;1.43;;;11.30;99.90;;;;;;4992789;28;20218;-75
2022/05/28 20:27:26;;;;;;;3.87;1.70;;;11.10;99.90;;;;;;4960759;28;20265;-75
2022/05/28 20:29:52;;;;;;;4.00;1.73;;;11.00;99.90;;;;;;4976859;28;20276;-75
2022/05/28 20:32:18;;;;;;;2.67;1.53;;;10.90;99.90;;;;;;4993100;28;20574;-75
2022/05/28 20:34:44;;;;;;;2.87;1.50;;;10.80;99.90;;;;;;4960883;28;20199;-75
2022/05/28 20:37:21;;;;;;;4.73;1.63;;;10.80;99.90;;;;;;4976816;28;20242;-77
2022/05/28 20:39:48;;;;;;;3.53;1.63;;;10.90;99.90;;;;;;4976845;28;20172;-75
2022/05/28 20:42:13;;;;;;;2.43;1.70;;;11.00;99.90;;;;;;4992617;28;20176;-75
2022/05/28 20:44:39;;;;;;;2.60;1.70;;;11.00;99.90;;;;;;4976555;28;20339;-75
2022/05/28 20:47:08;;;;;;;3.50;1.80;;;11.10;99.90;;;;;;4976771;28;20643;-75
2022/05/28 20:49:35;;;;;;;3.30;2.07;;;11.20;99.90;;;;;;4976550;28;20752;-75
2022/05/28 20:52:02;;;;;;;6.87;2.27;;;11.30;99.90;;;;;;4960303;28;20180;-75
2022/05/28 20:54:27;;;;;;;5.63;1.60;;;11.30;99.90;;;;;;4976379;28;20679;-75
2022/05/28 20:56:53;;;;;;;3.40;1.53;;;11.10;99.90;;;;;;4960391;28;20186;-75
2022/05/28 20:59:18;;;;;;;4.53;1.80;;;11.00;99.90;;;;;;4960273;28;20183;-75
2022/05/28 21:01:46;;;;;;;2.63;1.60;;;10.90;99.90;;;;;;4960439;28;20199;-74
2022/05/28 21:04:12;;;;;;;1.73;1.53;;;10.90;99.90;;;;;;4976156;28;20239;-75
2022/05/28 21:06:45;;;;;;;2.63;1.50;;;10.90;99.90;;;;;;4992427;28;20179;-75
2022/05/28 21:09:13;;;;;;;4.50;1.60;;;11.00;99.90;;;;;;4992524;28;20278;-75
2022/05/28 21:11:39;;;;;;;3.87;1.50;;;11.00;99.90;;;;;;4976649;28;20593;-75
2022/05/28 21:14:06;;;;;;;2.90;1.50;;;10.90;99.90;;;;;;4992362;28;20172;-75
2022/05/28 21:16:33;;;;;;;3.70;1.70;;;10.90;99.90;;;;;;4976540;28;20213;-75
2022/05/28 21:19:04;;;;;;;3.17;1.57;;;10.90;99.90;;;;;;4991812;28;20188;-75
2022/05/28 21:21:39;;;;;;;2.87;1.70;;;10.90;99.90;;;;;;4992167;28;20175;-75
2022/05/28 21:24:07;;;;;;;2.10;1.50;;;10.90;99.90;;;;;;4993062;28;20210;-75
2022/05/28 21:32:13;;;;;;;4.03;1.70;;;10.70;99.90;;;;;;4992404;28;20272;-75
2022/05/28 21:34:39;;;;;;;3.10;1.37;;;10.60;99.90;;;;;;4991956;28;20199;-75
2022/05/28 21:37:06;;;;;;;1.90;1.40;;;10.50;99.90;;;;;;5035392;23;20233;-75
2022/05/28 21:39:33;;;;;;;3.30;1.67;;;10.50;99.90;;;;;;5014282;28;20269;-74
2022/05/28 21:41:58;;;;;;;1.77;1.50;;;10.30;99.90;;;;;;5014280;28;20181;-74
2022/05/28 21:44:24;;;;;;;5.53;1.70;;;10.10;99.90;;;;;;5014407;28;20232;-74
2022/05/28 21:46:50;;;;;;;4.17;1.50;;;10.00;99.90;;;;;;5030781;28;20205;-74
2022/05/28 21:49:16;;;;;;;3.67;1.60;;;10.10;99.90;;;;;;5030955;28;20603;-74
2022/05/28 21:51:42;;;;;;;3.00;1.60;;;10.20;99.90;;;;;;5030758;28;20205;-74
2022/05/28 21:54:13;;;;;;;2.63;1.40;;;10.30;99.90;;;;;;4997959;28;20170;-74
2022/05/28 21:56:38;;;;;;;3.30;1.60;;;10.40;99.90;;;;;;5030686;28;20196;-75
2022/05/28 21:59:04;;;;;;;2.73;1.57;;;10.30;99.90;;;;;;4997802;28;20182;-74
2022/05/28 22:01:30;;;;;;;4.47;1.43;;;10.30;99.90;;;;;;4997884;28;20178;-75
2022/05/28 22:03:58;;;;;;;3.87;1.70;;;10.40;99.90;;;;;;5014275;28;20174;-75
2022/05/28 22:06:25;;;;;;;2.10;1.60;;;10.30;99.90;;;;;;5014020;28;20189;-74